Time;durP1;ratioP1;P1;durP2;ratioP2;P2;SDS_P1;SDS_P2;PMS_P1;PMS_P2;Temp;Humidity;BMP_temperature;BMP_pressure;BME280_temperature;BME280_humidity;BME280_pressure;Samples;Min_cycle;Max_cycle;Signal;HPM_P1;HPM_P2
2023/06/03 00:00:12;;;;;;;10.85;4.80;;;;;;;;;;5003877;28;20531;-69
2023/06/03 00:02:37;;;;;;;14.48;5.20;;;;;;;;;;5004735;28;20400;-69
2023/06/03 00:05:03;;;;;;;9.15;5.03;;;;;;;;;;5009495;28;20365;-69
2023/06/03 00:07:28;;;;;;;16.25;4.80;;;;;;;;;;4999481;28;20048;-69
2023/06/03 00:09:54;;;;;;;10.82;5.22;;;;;;;;;;5003955;28;20052;-69
2023/06/03 00:12:20;;;;;;;10.52;4.88;;;;;;;;;;5005549;28;20034;-68
2023/06/03 00:14:46;;;;;;;11.90;5.35;;;;;;;;;;5003699;28;20045;-69
2023/06/03 00:17:11;;;;;;;15.88;5.00;;;;;;;;;;5004596;28;20033;-69
2023/06/03 00:19:39;;;;;;;12.63;4.75;;;;;;;;;;5004522;28;20056;-69
2023/06/03 00:22:06;;;;;;;10.98;5.03;;;;;;;;;;5004236;28;20468;-69
2023/06/03 00:24:32;;;;;;;15.00;5.35;;;;;;;;;;5019239;28;20091;-69
2023/06/03 00:26:57;;;;;;;8.93;4.45;;;;;;;;;;5017060;28;20037;-69
2023/06/03 00:29:22;;;;;;;13.63;4.72;;;;;;;;;;5023705;28;20033;-70
2023/06/03 00:31:48;;;;;;;10.25;4.82;;;;;;;;;;5022653;28;20106;-69
2023/06/03 00:34:13;;;;;;;11.35;4.60;;;;;;;;;;5009798;28;20040;-69
2023/06/03 00:36:39;;;;;;;12.00;4.63;;;;;;;;;;5022051;28;20041;-69
2023/06/03 00:39:04;;;;;;;11.75;4.55;;;;;;;;;;5022021;28;20049;-69
2023/06/03 00:41:30;;;;;;;14.38;5.05;;;;;;;;;;5023554;28;20037;-69
2023/06/03 00:43:55;;;;;;;9.98;4.72;;;;;;;;;;5022182;28;20048;-69
2023/06/03 00:46:21;;;;;;;12.60;5.15;;;;;;;;;;5015218;28;20029;-69
2023/06/03 00:48:47;;;;;;;9.75;5.03;;;;;;;;;;5023752;28;20029;-69
2023/06/03 00:51:13;;;;;;;12.35;4.78;;;;;;;;;;5023238;28;20045;-69
2023/06/03 00:53:38;;;;;;;9.95;4.63;;;;;;;;;;5017842;28;20586;-69
2023/06/03 00:56:04;;;;;;;12.05;5.40;;;;;;;;;;5018510;28;20042;-69
2023/06/03 00:58:30;;;;;;;9.27;4.53;;;;;;;;;;5023344;28;20665;-69
2023/06/03 01:00:55;;;;;;;12.63;4.72;;;;;;;;;;5021005;28;20028;-69
2023/06/03 01:03:21;;;;;;;15.35;5.00;;;;;;;;;;5022684;28;20140;-69
2023/06/03 01:05:57;;;;;;;9.13;4.63;;;;;;;;;;5023573;28;20118;-69
2023/06/03 01:08:23;;;;;;;10.38;5.22;;;;;;;;;;5021993;28;20030;-69
2023/06/03 01:11:07;;;;;;;9.68;5.32;;;;;;;;;;5028797;28;20046;-68
2023/06/03 01:13:42;;;;;;;14.77;5.20;;;;;;;;;;5015664;28;20495;-69
2023/06/03 01:16:08;;;;;;;12.20;5.30;;;;;;;;;;5034192;28;20022;-69
2023/06/03 01:18:35;;;;;;;10.38;5.20;;;;;;;;;;5023863;28;20508;-69
2023/06/03 01:21:03;;;;;;;9.20;5.07;;;;;;;;;;5023921;28;20670;-69
2023/06/03 01:23:33;;;;;;;11.43;5.40;;;;;;;;;;5024327;28;20033;-69
2023/06/03 01:26:00;;;;;;;11.93;5.47;;;;;;;;;;5021982;28;20038;-69
2023/06/03 01:28:27;;;;;;;13.10;5.00;;;;;;;;;;5025662;28;20029;-69
2023/06/03 01:30:53;;;;;;;14.43;5.45;;;;;;;;;;5033682;28;20086;-69
2023/06/03 01:33:21;;;;;;;11.00;5.57;;;;;;;;;;5030373;28;20033;-69
2023/06/03 01:35:48;;;;;;;10.55;5.47;;;;;;;;;;5021265;28;20495;-69
2023/06/03 01:38:14;;;;;;;11.10;5.13;;;;;;;;;;5024287;28;20112;-69
2023/06/03 01:40:40;;;;;;;10.25;5.35;;;;;;;;;;5012713;28;20065;-69
2023/06/03 01:43:06;;;;;;;10.57;5.78;;;;;;;;;;5021003;28;20496;-69
2023/06/03 01:45:32;;;;;;;12.70;5.78;;;;;;;;;;5017337;28;20041;-69
2023/06/03 01:47:57;;;;;;;12.60;5.85;;;;;;;;;;5025805;28;20045;-69
2023/06/03 01:50:23;;;;;;;12.93;5.53;;;;;;;;;;5023649;28;20091;-69
2023/06/03 01:52:49;;;;;;;11.48;6.10;;;;;;;;;;5025239;28;20167;-69
2023/06/03 01:55:14;;;;;;;13.27;5.95;;;;;;;;;;5025584;28;20098;-69
2023/06/03 01:57:40;;;;;;;12.55;5.65;;;;;;;;;;5025929;28;20109;-69
2023/06/03 02:00:06;;;;;;;11.85;5.72;;;;;;;;;;5026636;28;20090;-69
2023/06/03 02:02:32;;;;;;;11.75;6.47;;;;;;;;;;5027831;28;20100;-69
2023/06/03 02:04:57;;;;;;;12.20;5.95;;;;;;;;;;5025565;28;20557;-69
2023/06/03 02:07:25;;;;;;;9.52;5.65;;;;;;;;;;5026583;28;20026;-68
2023/06/03 02:09:52;;;;;;;13.77;6.35;;;;;;;;;;5025484;28;20043;-69
2023/06/03 02:12:19;;;;;;;11.95;6.13;;;;;;;;;;5025717;28;20749;-69
2023/06/03 02:14:44;;;;;;;11.63;6.00;;;;;;;;;;5025555;28;20037;-69
2023/06/03 02:17:11;;;;;;;13.00;6.78;;;;;;;;;;5026044;28;20045;-69
2023/06/03 02:19:37;;;;;;;11.73;5.97;;;;;;;;;;5026026;28;20388;-69
2023/06/03 02:22:05;;;;;;;13.93;6.63;;;;;;;;;;5024390;28;20021;-69
2023/06/03 02:24:31;;;;;;;11.13;6.38;;;;;;;;;;5019147;28;20037;-69
2023/06/03 02:27:01;;;;;;;13.82;6.63;;;;;;;;;;5025204;28;20037;-69
2023/06/03 02:29:26;;;;;;;12.55;6.65;;;;;;;;;;5020951;28;20041;-69
2023/06/03 02:31:53;;;;;;;15.18;6.68;;;;;;;;;;5026306;28;20044;-69
2023/06/03 02:34:19;;;;;;;14.20;6.50;;;;;;;;;;5025820;28;20037;-69
2023/06/03 02:36:45;;;;;;;12.27;6.57;;;;;;;;;;5025586;28;20427;-69
2023/06/03 02:39:11;;;;;;;13.90;7.18;;;;;;;;;;5019138;28;20170;-69
2023/06/03 02:41:38;;;;;;;17.15;7.00;;;;;;;;;;5023775;28;20076;-70
2023/06/03 02:44:04;;;;;;;12.07;7.22;;;;;;;;;;5025654;28;20056;-69
2023/06/03 02:46:30;;;;;;;16.98;6.75;;;;;;;;;;5020120;28;20051;-69
2023/06/03 02:48:55;;;;;;;12.15;6.97;;;;;;;;;;5026705;28;20030;-69
2023/06/03 02:51:21;;;;;;;14.30;6.85;;;;;;;;;;5029891;28;20046;-70
2023/06/03 02:53:46;;;;;;;17.23;7.97;;;;;;;;;;5035685;28;20034;-69
2023/06/03 02:56:12;;;;;;;16.27;6.97;;;;;;;;;;5022828;28;20098;-69
2023/06/03 02:58:37;;;;;;;15.25;7.13;;;;;;;;;;5027001;28;20029;-69
2023/06/03 03:01:03;;;;;;;14.73;7.60;;;;;;;;;;5026475;28;20029;-70
2023/06/03 03:03:29;;;;;;;15.95;7.35;;;;;;;;;;5032488;28;20422;-69
2023/06/03 03:05:56;;;;;;;13.75;6.88;;;;;;;;;;5025751;28;20038;-69
2023/06/03 03:08:22;;;;;;;16.58;8.50;;;;;;;;;;5028517;28;20117;-69
2023/06/03 03:10:48;;;;;;;16.45;7.55;;;;;;;;;;5021328;28;20021;-69
2023/06/03 03:13:14;;;;;;;14.50;7.85;;;;;;;;;;5028669;28;20414;-69
2023/06/03 03:15:39;;;;;;;12.95;7.55;;;;;;;;;;5005553;28;20069;-69
2023/06/03 03:18:04;;;;;;;19.10;8.18;;;;;;;;;;5019712;28;20507;-69
2023/06/03 03:20:30;;;;;;;14.25;7.30;;;;;;;;;;5024654;28;20408;-69
2023/06/03 03:22:55;;;;;;;15.70;8.23;;;;;;;;;;5024688;28;20033;-69
2023/06/03 03:25:21;;;;;;;17.23;7.57;;;;;;;;;;5024714;28;20030;-69
2023/06/03 03:27:46;;;;;;;12.27;7.35;;;;;;;;;;5023599;28;20050;-69
2023/06/03 03:30:12;;;;;;;15.32;7.57;;;;;;;;;;5019720;28;20041;-69
2023/06/03 03:32:37;;;;;;;13.35;7.18;;;;;;;;;;5017908;28;20543;-69
2023/06/03 03:35:12;;;;;;;18.02;7.78;;;;;;;;;;5024893;28;20454;-69
2023/06/03 03:37:37;;;;;;;14.20;7.80;;;;;;;;;;5023324;28;20600;-69
2023/06/03 03:40:05;;;;;;;15.10;7.75;;;;;;;;;;5016483;28;20568;-69
2023/06/03 03:42:31;;;;;;;12.27;7.43;;;;;;;;;;5022819;28;20041;-69
2023/06/03 03:44:59;;;;;;;14.60;7.63;;;;;;;;;;5024354;28;20049;-69
2023/06/03 03:47:24;;;;;;;15.57;7.82;;;;;;;;;;5011813;28;20730;-68
2023/06/03 03:49:50;;;;;;;13.25;7.15;;;;;;;;;;5022752;28;20033;-68
2023/06/03 03:52:24;;;;;;;22.50;7.85;;;;;;;;;;5023330;28;20021;-68
2023/06/03 03:54:49;;;;;;;17.30;7.82;;;;;;;;;;5017960;28;20076;-69
2023/06/03 03:57:16;;;;;;;14.93;7.80;;;;;;;;;;5017707;28;20124;-69
2023/06/03 03:59:42;;;;;;;13.95;7.32;;;;;;;;;;5016078;28;20128;-69
2023/06/03 04:02:07;;;;;;;21.45;8.50;;;;;;;;;;5024101;28;20557;-69
2023/06/03 04:04:40;;;;;;;13.50;7.72;;;;;;;;;;5022716;28;20036;-68
2023/06/03 04:07:07;;;;;;;16.63;7.80;;;;;;;;;;5025004;28;20017;-68
2023/06/03 04:09:33;;;;;;;18.55;8.00;;;;;;;;;;5024130;28;20040;-68
2023/06/03 04:11:58;;;;;;;16.15;8.43;;;;;;;;;;5021291;28;20049;-68
2023/06/03 04:14:44;;;;;;;12.88;7.80;;;;;;;;;;5021054;28;20434;-69
2023/06/03 04:17:12;;;;;;;15.25;8.00;;;;;;;;;;5026519;28;20170;-69
2023/06/03 04:19:37;;;;;;;13.40;7.93;;;;;;;;;;5024552;28;20029;-68
2023/06/03 04:22:06;;;;;;;15.82;8.27;;;;;;;;;;5016613;28;20033;-69
2023/06/03 04:24:33;;;;;;;15.75;8.65;;;;;;;;;;5027071;28;20056;-68
2023/06/03 04:26:59;;;;;;;16.20;8.07;;;;;;;;;;5023100;28;20041;-68
2023/06/03 04:29:24;;;;;;;17.42;8.02;;;;;;;;;;5021759;28;20041;-70
2023/06/03 04:31:50;;;;;;;17.30;8.20;;;;;;;;;;5023964;28;20030;-69
2023/06/03 04:34:16;;;;;;;15.52;8.07;;;;;;;;;;5023724;28;20025;-69
2023/06/03 04:36:41;;;;;;;17.83;8.15;;;;;;;;;;5023443;28;20041;-69
2023/06/03 04:39:08;;;;;;;14.63;7.97;;;;;;;;;;5022864;28;20048;-68
2023/06/03 04:41:34;;;;;;;17.20;8.52;;;;;;;;;;5030797;28;20044;-69
2023/06/03 04:44:01;;;;;;;14.60;8.25;;;;;;;;;;5023736;28;20431;-69
2023/06/03 04:46:29;;;;;;;17.27;8.65;;;;;;;;;;5022619;28;20124;-68
2023/06/03 04:48:59;;;;;;;14.65;8.35;;;;;;;;;;5023350;28;20033;-69
2023/06/03 04:51:27;;;;;;;16.35;8.32;;;;;;;;;;5022794;28;20080;-69
2023/06/03 04:53:56;;;;;;;17.08;8.70;;;;;;;;;;5023803;28;20057;-69
2023/06/03 04:56:28;;;;;;;17.67;8.32;;;;;;;;;;5022547;28;20415;-69
2023/06/03 04:58:56;;;;;;;16.13;8.48;;;;;;;;;;5023350;28;20029;-68
2023/06/03 05:01:23;;;;;;;22.45;8.00;;;;;;;;;;5019264;28;20507;-69
2023/06/03 05:03:48;;;;;;;18.50;8.73;;;;;;;;;;5026739;28;20050;-69
2023/06/03 05:06:14;;;;;;;18.50;8.85;;;;;;;;;;5027433;28;20041;-69
2023/06/03 05:08:40;;;;;;;20.63;9.15;;;;;;;;;;5026771;28;20045;-69
2023/06/03 05:11:05;;;;;;;17.63;9.15;;;;;;;;;;5026274;28;20136;-69
2023/06/03 05:13:31;;;;;;;16.13;8.80;;;;;;;;;;5025530;28;20029;-69
2023/06/03 05:15:57;;;;;;;14.43;8.10;;;;;;;;;;5027136;28;20033;-69
2023/06/03 05:18:22;;;;;;;19.25;8.93;;;;;;;;;;5026543;28;20064;-69
2023/06/03 05:20:47;;;;;;;17.35;8.63;;;;;;;;;;5025542;28;20033;-69
2023/06/03 05:23:13;;;;;;;20.13;8.35;;;;;;;;;;5026791;28;20045;-69
2023/06/03 05:25:38;;;;;;;16.90;8.05;;;;;;;;;;5025896;28;20846;-69
2023/06/03 05:28:04;;;;;;;16.23;8.05;;;;;;;;;;5024566;28;20029;-69
2023/06/03 05:30:29;;;;;;;18.52;9.02;;;;;;;;;;5025132;28;20114;-70
2023/06/03 05:32:54;;;;;;;16.90;8.43;;;;;;;;;;5027165;28;20124;-70
2023/06/03 05:35:20;;;;;;;20.85;9.13;;;;;;;;;;5023603;28;20129;-70
2023/06/03 05:37:45;;;;;;;14.75;8.63;;;;;;;;;;5028822;28;20025;-70
2023/06/03 05:40:11;;;;;;;19.30;9.05;;;;;;;;;;5020333;28;20021;-70
2023/06/03 05:42:36;;;;;;;16.85;8.10;;;;;;;;;;5036452;28;20582;-70
2023/06/03 05:45:03;;;;;;;19.67;8.75;;;;;;;;;;5029573;28;20384;-69
2023/06/03 05:47:28;;;;;;;17.10;8.43;;;;;;;;;;5027813;28;20102;-69
2023/06/03 05:49:54;;;;;;;17.92;8.40;;;;;;;;;;5026726;28;20495;-70
2023/06/03 05:52:19;;;;;;;16.88;8.23;;;;;;;;;;5026987;28;20030;-69
2023/06/03 05:54:44;;;;;;;20.20;8.25;;;;;;;;;;5015682;28;20291;-70
2023/06/03 05:57:10;;;;;;;15.43;7.90;;;;;;;;;;5017885;28;20029;-71
2023/06/03 05:59:35;;;;;;;15.02;8.25;;;;;;;;;;5025386;28;20457;-70
2023/06/03 06:02:00;;;;;;;28.58;10.18;;;;;;;;;;5026117;28;20450;-68
2023/06/03 06:04:26;;;;;;;48.95;13.23;;;;;;;;;;5026800;28;20030;-69
2023/06/03 06:06:51;;;;;;;30.63;9.38;;;;;;;;;;5025725;28;20075;-69
2023/06/03 06:09:17;;;;;;;37.25;13.30;;;;;;;;;;5025522;28;20099;-70
2023/06/03 06:11:42;;;;;;;24.42;9.00;;;;;;;;;;5025049;28;20041;-70
2023/06/03 06:14:08;;;;;;;21.58;8.27;;;;;;;;;;5019446;28;20029;-70
2023/06/03 06:16:33;;;;;;;36.20;11.52;;;;;;;;;;5011330;28;20029;-71
2023/06/03 06:18:59;;;;;;;57.67;14.23;;;;;;;;;;5020402;28;20067;-71
2023/06/03 06:21:24;;;;;;;39.08;12.70;;;;;;;;;;5017084;28;20464;-71
2023/06/03 06:23:50;;;;;;;20.90;8.80;;;;;;;;;;5020813;28;20557;-70
2023/06/03 06:26:16;;;;;;;17.98;7.90;;;;;;;;;;5025276;28;20068;-71
2023/06/03 06:28:42;;;;;;;14.02;6.95;;;;;;;;;;5019406;28;20029;-71
2023/06/03 06:31:09;;;;;;;17.60;7.20;;;;;;;;;;5009701;28;20029;-71
2023/06/03 06:33:35;;;;;;;12.35;6.82;;;;;;;;;;5015364;28;20096;-70
2023/06/03 06:36:17;;;;;;;16.50;7.10;;;;;;;;;;5017609;28;20053;-71
2023/06/03 06:38:43;;;;;;;14.43;6.72;;;;;;;;;;5015412;28;20049;-71
2023/06/03 06:41:12;;;;;;;12.80;7.32;;;;;;;;;;5012162;28;20706;-71
2023/06/03 06:43:39;;;;;;;13.82;6.25;;;;;;;;;;5012969;28;20044;-71
2023/06/03 06:46:05;;;;;;;13.77;7.20;;;;;;;;;;5017254;28;20021;-70
2023/06/03 06:48:34;;;;;;;14.60;6.63;;;;;;;;;;5010513;28;20118;-70
2023/06/03 06:51:00;;;;;;;11.45;6.45;;;;;;;;;;5008802;28;20518;-71
2023/06/03 06:53:27;;;;;;;12.52;6.35;;;;;;;;;;5008062;28;20065;-72
2023/06/03 06:55:54;;;;;;;15.60;6.60;;;;;;;;;;5026384;28;20120;-71
2023/06/03 06:58:21;;;;;;;14.65;6.00;;;;;;;;;;5024721;28;20025;-70
2023/06/03 07:00:48;;;;;;;12.73;6.18;;;;;;;;;;5028382;28;20044;-71
2023/06/03 07:03:15;;;;;;;13.50;5.93;;;;;;;;;;5035001;28;20118;-72
2023/06/03 07:05:40;;;;;;;15.52;6.03;;;;;;;;;;5036078;28;20052;-70
2023/06/03 07:08:06;;;;;;;12.90;6.03;;;;;;;;;;5026415;28;20034;-71
2023/06/03 07:10:32;;;;;;;15.10;5.55;;;;;;;;;;5020609;28;20514;-70
2023/06/03 07:12:57;;;;;;;10.35;5.07;;;;;;;;;;5024325;28;20026;-71
2023/06/03 07:15:23;;;;;;;10.25;5.50;;;;;;;;;;5023687;28;21051;-71
2023/06/03 07:17:53;;;;;;;10.40;5.47;;;;;;;;;;5023069;28;20084;-71
2023/06/03 07:20:26;;;;;;;10.45;4.93;;;;;;;;;;5024199;28;20116;-71
2023/06/03 07:22:51;;;;;;;;;;;;;;;;;;5024032;28;20109;-71
2023/06/03 07:25:37;;;;;;;11.70;4.47;;;;;;;;;;5023481;28;20042;-71
2023/06/03 07:28:05;;;;;;;10.68;4.53;;;;;;;;;;5024339;28;20137;-70
2023/06/03 07:30:33;;;;;;;6.93;4.13;;;;;;;;;;5022731;28;20033;-71
2023/06/03 07:32:59;;;;;;;12.05;4.28;;;;;;;;;;5023793;28;20068;-71
2023/06/03 07:35:25;;;;;;;11.68;4.28;;;;;;;;;;5023817;28;20106;-71
2023/06/03 07:37:50;;;;;;;9.00;4.20;;;;;;;;;;5025299;28;20522;-71
2023/06/03 07:40:16;;;;;;;11.20;4.43;;;;;;;;;;5023763;28;20641;-71
2023/06/03 07:42:45;;;;;;;14.00;3.65;;;;;;;;;;5024041;28;20037;-71
2023/06/03 07:45:13;;;;;;;8.20;3.67;;;;;;;;;;5024772;28;20036;-71
2023/06/03 07:47:40;;;;;;;6.55;3.65;;;;;;;;;;5024444;28;20041;-71
2023/06/03 07:50:25;;;;;;;7.72;3.58;;;;;;;;;;5012492;28;20649;-71
2023/06/03 07:53:00;;;;;;;7.78;3.80;;;;;;;;;;5022054;28;20045;-71
2023/06/03 07:55:29;;;;;;;11.43;4.28;;;;;;;;;;5017601;28;20531;-73
2023/06/03 07:57:54;;;;;;;7.82;3.65;;;;;;;;;;5019701;28;20041;-73
2023/06/03 08:00:20;;;;;;;8.48;3.88;;;;;;;;;;5023667;28;20037;-73
2023/06/03 08:02:45;;;;;;;8.85;4.13;;;;;;;;;;5011081;28;20049;-72
2023/06/03 08:05:10;;;;;;;11.63;3.53;;;;;;;;;;5022543;28;20117;-72
2023/06/03 08:07:36;;;;;;;4.57;3.13;;;;;;;;;;5022855;28;20021;-72
2023/06/03 08:10:03;;;;;;;6.53;3.30;;;;;;;;;;5023097;28;20017;-72
2023/06/03 08:12:32;;;;;;;7.20;3.50;;;;;;;;;;5023724;28;20042;-72
2023/06/03 08:14:59;;;;;;;7.47;3.45;;;;;;;;;;5023433;28;20087;-72
2023/06/03 08:17:40;;;;;;;16.52;3.58;;;;;;;;;;5023173;28;20419;-72
2023/06/03 08:20:09;;;;;;;7.45;3.47;;;;;;;;;;5024338;28;20057;-72
2023/06/03 08:22:42;;;;;;;6.55;3.13;;;;;;;;;;5025826;28;20168;-72
2023/06/03 08:25:08;;;;;;;6.80;3.10;;;;;;;;;;5030667;28;20088;-72
2023/06/03 08:27:35;;;;;;;4.38;2.60;;;;;;;;;;5036602;28;20124;-72
2023/06/03 08:30:03;;;;;;;6.57;2.75;;;;;;;;;;5030678;28;20103;-72
2023/06/03 08:32:41;;;;;;;5.28;2.33;;;;;;;;;;5024820;28;20771;-72
2023/06/03 08:35:08;;;;;;;5.75;2.53;;;;;;;;;;5023270;28;20039;-72
2023/06/03 08:37:33;;;;;;;7.95;2.50;;;;;;;;;;5023689;28;20033;-72
2023/06/03 08:40:00;;;;;;;4.13;2.40;;;;;;;;;;5023430;28;20021;-73
2023/06/03 08:42:34;;;;;;;12.60;2.40;;;;;;;;;;5023653;28;20085;-72
2023/06/03 08:45:07;;;;;;;4.35;2.17;;;;;;;;;;5023353;28;20832;-72
2023/06/03 08:47:38;;;;;;;4.93;2.70;;;;;;;;;;5021335;28;20033;-72
2023/06/03 08:50:08;;;;;;;3.00;2.03;;;;;;;;;;5010861;28;20037;-72
2023/06/03 08:52:35;;;;;;;3.58;2.13;;;;;;;;;;5023295;28;20033;-72
2023/06/03 08:55:01;;;;;;;5.47;2.70;;;;;;;;;;5023528;28;20021;-72
2023/06/03 08:57:34;;;;;;;5.18;2.42;;;;;;;;;;5022902;28;20048;-72
2023/06/03 09:00:00;;;;;;;5.28;2.30;;;;;;;;;;5024055;28;20132;-72
2023/06/03 09:02:28;;;;;;;4.95;2.30;;;;;;;;;;5022754;28;20447;-72
2023/06/03 09:04:55;;;;;;;4.18;2.40;;;;;;;;;;5021608;28;20544;-72
2023/06/03 09:07:23;;;;;;;5.10;2.17;;;;;;;;;;5023882;28;20087;-72
2023/06/03 09:09:50;;;;;;;5.57;2.38;;;;;;;;;;5023442;28;20041;-73
2023/06/03 09:12:16;;;;;;;7.18;2.33;;;;;;;;;;5022697;28;20136;-72
2023/06/03 09:14:43;;;;;;;3.47;2.00;;;;;;;;;;5022386;28;20148;-72
2023/06/03 09:17:09;;;;;;;2.95;2.15;;;;;;;;;;5021622;28;20029;-72
2023/06/03 09:19:35;;;;;;;4.10;2.00;;;;;;;;;;5018788;28;20386;-72
2023/06/03 09:22:01;;;;;;;4.93;2.20;;;;;;;;;;5017264;28;20017;-72
2023/06/03 09:24:27;;;;;;;4.47;2.20;;;;;;;;;;5014437;28;20038;-72
2023/06/03 09:26:52;;;;;;;4.35;2.20;;;;;;;;;;5023133;28;20148;-71
2023/06/03 09:29:18;;;;;;;3.92;2.00;;;;;;;;;;5018712;28;20052;-72
2023/06/03 09:31:43;;;;;;;3.65;2.13;;;;;;;;;;5010232;28;20069;-72
2023/06/03 09:34:09;;;;;;;5.15;2.30;;;;;;;;;;5014787;28;20088;-72
2023/06/03 09:36:45;;;;;;;4.55;2.42;;;;;;;;;;5014245;28;20038;-71
2023/06/03 09:39:12;;;;;;;4.32;2.10;;;;;;;;;;5006049;28;20563;-71
2023/06/03 09:41:37;;;;;;;4.18;2.40;;;;;;;;;;5020962;28;20052;-71
2023/06/03 09:44:08;;;;;;;3.63;2.38;;;;;;;;;;5022687;28;20030;-72
2023/06/03 09:46:34;;;;;;;4.38;2.38;;;;;;;;;;5026185;28;20025;-71
2023/06/03 09:49:17;;;;;;;7.95;2.63;;;;;;;;;;5020558;28;20114;-71
2023/06/03 09:51:49;;;;;;;6.67;2.50;;;;;;;;;;5033668;28;20065;-71
2023/06/03 09:54:15;;;;;;;3.15;2.28;;;;;;;;;;5025866;28;20593;-72
2023/06/03 09:56:41;;;;;;;3.70;2.20;;;;;;;;;;5016759;28;20136;-72
2023/06/03 09:59:14;;;;;;;4.65;2.20;;;;;;;;;;5018268;28;20037;-72
2023/06/03 10:01:47;;;;;;;5.00;2.53;;;;;;;;;;5019058;28;20052;-71
2023/06/03 10:04:44;;;;;;;7.28;2.38;;;;;;;;;;5024080;28;20471;-71
2023/06/03 10:07:10;;;;;;;3.17;2.05;;;;;;;;;;5015898;28;20038;-71
2023/06/03 10:09:36;;;;;;;4.40;2.13;;;;;;;;;;5024194;28;20037;-71
2023/06/03 10:12:02;;;;;;;4.35;2.38;;;;;;;;;;5026057;28;20033;-71
2023/06/03 10:14:28;;;;;;;4.10;2.05;;;;;;;;;;5025604;28;20033;-71
2023/06/03 10:17:10;;;;;;;6.18;2.70;;;;;;;;;;5024784;28;20034;-71
2023/06/03 10:19:38;;;;;;;5.88;2.33;;;;;;;;;;5025271;28;20053;-71
2023/06/03 10:22:04;;;;;;;3.90;2.17;;;;;;;;;;5025339;28;20022;-71
2023/06/03 10:24:32;;;;;;;6.18;2.42;;;;;;;;;;5025167;28;20029;-71
2023/06/03 10:26:57;;;;;;;3.50;2.20;;;;;;;;;;5025268;28;20037;-71
2023/06/03 10:29:24;;;;;;;3.85;2.33;;;;;;;;;;5025190;28;20056;-71
2023/06/03 10:31:54;;;;;;;8.65;2.40;;;;;;;;;;5024793;28;20041;-71
2023/06/03 10:34:20;;;;;;;3.78;2.50;;;;;;;;;;5025177;28;20030;-71
2023/06/03 10:36:52;;;;;;;4.30;2.75;;;;;;;;;;5025968;28;20130;-71
2023/06/03 10:39:18;;;;;;;4.72;2.50;;;;;;;;;;5017425;28;20577;-71
2023/06/03 10:41:45;;;;;;;3.70;2.35;;;;;;;;;;5025020;28;20035;-71
2023/06/03 10:44:10;;;;;;;10.45;2.10;;;;;;;;;;5015500;28;20038;-71
2023/06/03 10:46:41;;;;;;;5.70;2.30;;;;;;;;;;5024839;28;20445;-71
2023/06/03 10:49:08;;;;;;;4.28;2.40;;;;;;;;;;5024173;28;20984;-71
2023/06/03 10:51:55;;;;;;;4.90;2.20;;;;;;;;;;5024863;28;20069;-72
2023/06/03 10:54:23;;;;;;;2.88;2.03;;;;;;;;;;5024431;28;20029;-72
2023/06/03 10:57:00;;;;;;;5.90;1.98;;;;;;;;;;5027030;28;20046;-72
2023/06/03 10:59:28;;;;;;;4.88;2.30;;;;;;;;;;5017401;28;20036;-72
2023/06/03 11:01:58;;;;;;;4.00;2.10;;;;;;;;;;5019814;28;20061;-71
2023/06/03 11:04:24;;;;;;;5.72;2.30;;;;;;;;;;5019994;28;20036;-71
2023/06/03 11:06:50;;;;;;;6.18;2.33;;;;;;;;;;5022297;28;20037;-71
2023/06/03 11:09:29;;;;;;;3.92;2.17;;;;;;;;;;5019082;28;20094;-71
2023/06/03 11:12:03;;;;;;;7.38;2.40;;;;;;;;;;5029420;28;20090;-71
2023/06/03 11:14:29;;;;;;;3.88;2.10;;;;;;;;;;5035407;28;20041;-70
2023/06/03 11:16:57;;;;;;;5.97;2.40;;;;;;;;;;5028112;28;20092;-72
2023/06/03 11:19:30;;;;;;;6.47;2.40;;;;;;;;;;5026008;28;20022;-71
2023/06/03 11:21:57;;;;;;;5.03;2.20;;;;;;;;;;5019465;28;20529;-71
2023/06/03 11:24:37;;;;;;;4.15;2.05;;;;;;;;;;5024442;28;20038;-71
2023/06/03 11:27:21;;;;;;;6.45;2.30;;;;;;;;;;5027759;28;20037;-71
2023/06/03 11:29:46;;;;;;;6.03;2.20;;;;;;;;;;5023724;28;20052;-71
2023/06/03 11:32:12;;;;;;;8.15;2.50;;;;;;;;;;5021336;28;20037;-71
2023/06/03 11:34:38;;;;;;;4.43;2.22;;;;;;;;;;5025161;28;20021;-71
2023/06/03 11:37:03;;;;;;;3.42;2.10;;;;;;;;;;5020261;28;20037;-71
2023/06/03 11:39:58;;;;;;;6.32;2.10;;;;;;;;;;5016437;28;20458;-71
2023/06/03 11:42:24;;;;;;;4.47;2.55;;;;;;;;;;5010616;28;20037;-72
2023/06/03 11:44:49;;;;;;;3.65;2.35;;;;;;;;;;5023472;28;20029;-71
2023/06/03 11:47:14;;;;;;;7.25;2.85;;;;;;;;;;5022419;28;20562;-71
2023/06/03 11:49:40;;;;;;;3.28;2.05;;;;;;;;;;5018918;28;20033;-72
2023/06/03 11:52:08;;;;;;;7.43;3.10;;;;;;;;;;5024734;28;20033;-72
2023/06/03 11:54:35;;;;;;;5.65;2.45;;;;;;;;;;5024136;28;20041;-71
2023/06/03 11:57:03;;;;;;;5.55;2.47;;;;;;;;;;5024580;28;20431;-71
2023/06/03 11:59:51;;;;;;;9.60;3.03;;;;;;;;;;5023879;28;20120;-71
2023/06/03 12:02:16;;;;;;;3.38;2.30;;;;;;;;;;5007538;28;20058;-71
2023/06/03 12:04:45;;;;;;;3.38;2.10;;;;;;;;;;5023457;28;20435;-72
2023/06/03 12:07:15;;;;;;;7.28;2.55;;;;;;;;;;5023969;28;20495;-72
2023/06/03 12:09:40;;;;;;;4.10;2.20;;;;;;;;;;5024877;28;20116;-72
2023/06/03 12:12:07;;;;;;;4.65;2.38;;;;;;;;;;5018984;28;20052;-72
2023/06/03 12:14:34;;;;;;;4.45;2.17;;;;;;;;;;5020376;28;20091;-72
2023/06/03 12:17:14;;;;;;;9.15;2.40;;;;;;;;;;5024371;28;20029;-72
2023/06/03 12:19:41;;;;;;;3.53;2.28;;;;;;;;;;5009705;28;20017;-72
2023/06/03 12:22:06;;;;;;;5.50;2.28;;;;;;;;;;5024944;28;20036;-72
2023/06/03 12:24:33;;;;;;;5.05;2.20;;;;;;;;;;5024301;28;20080;-72
2023/06/03 12:27:16;;;;;;;10.52;3.60;;;;;;;;;;5019317;28;20524;-72
2023/06/03 12:29:46;;;;;;;6.65;2.28;;;;;;;;;;5011235;28;20810;-72
2023/06/03 12:32:12;;;;;;;2.72;2.13;;;;;;;;;;5025062;28;20037;-72
2023/06/03 12:34:38;;;;;;;3.65;1.92;;;;;;;;;;5025791;28;20035;-72
2023/06/03 12:37:07;;;;;;;5.78;2.15;;;;;;;;;;5027509;28;20018;-72
2023/06/03 12:39:49;;;;;;;6.70;2.20;;;;;;;;;;5034263;28;20498;-72
2023/06/03 12:42:17;;;;;;;4.82;2.40;;;;;;;;;;5022268;28;20041;-72
2023/06/03 12:44:52;;;;;;;4.15;2.10;;;;;;;;;;5022597;28;20542;-72
2023/06/03 12:47:17;;;;;;;2.28;1.90;;;;;;;;;;5022162;28;20112;-72
2023/06/03 12:49:44;;;;;;;4.00;2.00;;;;;;;;;;5023440;28;20117;-72
2023/06/03 12:52:17;;;;;;;4.18;2.20;;;;;;;;;;5024428;28;20506;-72
2023/06/03 12:54:45;;;;;;;9.38;1.85;;;;;;;;;;5022348;28;20076;-72
2023/06/03 12:57:10;;;;;;;4.10;2.08;;;;;;;;;;5018149;28;20045;-73
2023/06/03 13:00:08;;;;;;;5.10;2.35;;;;;;;;;;5011990;28;20076;-72
2023/06/03 13:02:35;;;;;;;6.53;2.20;;;;;;;;;;5019468;28;20446;-73
2023/06/03 13:05:01;;;;;;;5.45;2.20;;;;;;;;;;5020081;28;20485;-73
2023/06/03 13:07:26;;;;;;;5.45;2.22;;;;;;;;;;5020778;28;20025;-73
2023/06/03 13:09:56;;;;;;;4.68;2.17;;;;;;;;;;5022971;28;20450;-73
2023/06/03 13:12:24;;;;;;;3.83;2.20;;;;;;;;;;5022246;28;20064;-73
2023/06/03 13:14:50;;;;;;;5.80;2.20;;;;;;;;;;5017255;28;20034;-73
2023/06/03 13:17:16;;;;;;;5.18;2.05;;;;;;;;;;5023711;28;20030;-72
2023/06/03 13:19:41;;;;;;;4.07;2.05;;;;;;;;;;5021660;28;20410;-72
2023/06/03 13:22:07;;;;;;;7.70;2.60;;;;;;;;;;5025099;28;20021;-73
2023/06/03 13:24:33;;;;;;;4.05;1.80;;;;;;;;;;5021663;28;20038;-73
2023/06/03 13:26:58;;;;;;;3.20;2.17;;;;;;;;;;5023488;28;20041;-73
2023/06/03 13:29:25;;;;;;;3.72;2.03;;;;;;;;;;5026227;28;20030;-73
2023/06/03 13:31:50;;;;;;;5.05;1.90;;;;;;;;;;5024876;28;20068;-72
2023/06/03 13:34:15;;;;;;;3.65;1.90;;;;;;;;;;5027594;28;20045;-73
2023/06/03 13:36:40;;;;;;;4.68;2.10;;;;;;;;;;5026544;28;20030;-73
2023/06/03 13:39:06;;;;;;;4.47;2.10;;;;;;;;;;5025605;28;20033;-73
2023/06/03 13:41:31;;;;;;;5.75;2.10;;;;;;;;;;5025569;28;20033;-73
2023/06/03 13:43:56;;;;;;;2.85;1.90;;;;;;;;;;5027550;28;20056;-73
2023/06/03 13:46:22;;;;;;;4.53;2.10;;;;;;;;;;5027549;28;20017;-73
2023/06/03 13:48:47;;;;;;;2.83;2.10;;;;;;;;;;5017346;28;20041;-74
2023/06/03 13:51:12;;;;;;;4.50;2.08;;;;;;;;;;5019626;28;20033;-73
2023/06/03 13:53:38;;;;;;;9.07;2.08;;;;;;;;;;5026940;28;20029;-73
2023/06/03 13:56:03;;;;;;;4.82;2.05;;;;;;;;;;5028020;28;20151;-73
2023/06/03 13:58:28;;;;;;;5.65;2.05;;;;;;;;;;5028451;28;20018;-74
2023/06/03 14:00:54;;;;;;;4.38;1.90;;;;;;;;;;5036514;28;20034;-74
2023/06/03 14:03:20;;;;;;;10.02;2.15;;;;;;;;;;5040713;28;20574;-74
2023/06/03 14:05:46;;;;;;;4.78;2.17;;;;;;;;;;5028844;28;20467;-74
2023/06/03 14:08:12;;;;;;;3.00;1.83;;;;;;;;;;5026256;28;20103;-74
2023/06/03 14:10:41;;;;;;;6.75;2.20;;;;;;;;;;5020888;28;20022;-74
2023/06/03 14:13:06;;;;;;;4.40;2.10;;;;;;;;;;5026520;28;20017;-73
2023/06/03 14:15:33;;;;;;;4.78;2.08;;;;;;;;;;5026273;28;20082;-74
2023/06/03 14:17:59;;;;;;;2.13;1.83;;;;;;;;;;5024007;28;20982;-74
2023/06/03 14:20:24;;;;;;;3.85;1.90;;;;;;;;;;5026547;28;20549;-74
2023/06/03 14:22:49;;;;;;;5.38;2.03;;;;;;;;;;5025509;28;20029;-74
2023/06/03 14:25:15;;;;;;;4.15;2.22;;;;;;;;;;5025828;28;20456;-74
2023/06/03 14:27:40;;;;;;;3.67;2.10;;;;;;;;;;5024035;28;20029;-74
2023/06/03 14:30:06;;;;;;;4.05;1.90;;;;;;;;;;5025582;28;20288;-74
2023/06/03 14:32:32;;;;;;;3.70;1.90;;;;;;;;;;5024428;28;20613;-74
2023/06/03 14:35:02;;;;;;;6.47;2.20;;;;;;;;;;5025269;28;20163;-74
2023/06/03 14:37:28;;;;;;;2.53;1.88;;;;;;;;;;5017529;28;20742;-75